Time;durP1;ratioP1;P1;durP2;ratioP2;P2;SDS_P1;SDS_P2;PMS_P1;PMS_P2;Temp;Humidity;BMP_temperature;BMP_pressure;BME280_temperature;BME280_humidity;BME280_pressure;Samples;Min_cycle;Max_cycle;Signal;HPM_P1;HPM_P2
2021/07/27 09:23:14;;;;;;;25.88;14.25;;;;;;;29.31;37.65;99890.25;4227660;33;20069;-92
2021/07/27 09:25:47;;;;;;;24.58;14.10;;;;;;;29.19;37.41;99886.28;4216998;33;20094;-92
2021/07/27 09:28:18;;;;;;;25.23;12.55;;;;;;;29.30;36.74;99891.63;4216326;34;20479;-92
2021/07/27 09:30:48;;;;;;;24.35;14.40;;;;;;;29.29;37.02;99904.59;4226125;33;20085;-93
2021/07/27 09:33:30;;;;;;;20.58;12.82;;;;;;;29.32;36.91;99888.94;4217645;34;20047;-93
2021/07/27 09:36:07;;;;;;;17.05;11.30;;;;;;;29.63;36.12;99896.06;4228142;34;20034;-92
2021/07/27 09:38:41;;;;;;;23.33;12.18;;;;;;;29.38;36.11;99892.34;4213955;34;20637;-92
2021/07/27 09:41:13;;;;;;;23.02;12.98;;;;;;;29.38;36.35;99890.22;4232442;33;20381;-93
2021/07/27 09:43:41;;;;;;;18.40;10.75;;;;;;;29.28;36.34;99895.13;4222488;34;20047;-93
2021/07/27 09:46:16;;;;;;;27.40;13.25;;;;;;;29.26;35.92;99897.06;4220088;34;20082;-93
2021/07/27 09:49:17;;;;;;;16.50;10.75;;;;;;;29.44;35.71;99896.56;4239112;33;20035;-93
2021/07/27 09:52:58;;;;;;;15.73;10.05;;;;;;;29.54;35.65;99902.50;4241025;33;20067;-93
2021/07/27 09:55:32;;;;;;;23.85;11.02;;;;;;;29.58;35.78;99897.03;4220221;34;20042;-92
2021/07/27 09:58:01;;;;;;;18.75;11.32;;;;;;;29.47;35.62;99900.38;4217265;34;20158;-94
2021/07/27 10:01:19;;;;;;;19.95;11.98;;;;;;;29.30;36.08;99897.44;4215604;34;20031;-93
2021/07/27 10:03:57;;;;;;;16.52;11.15;;;;;;;29.44;35.88;99901.56;4227692;33;20153;-90
2021/07/27 10:06:30;;;;;;;22.20;11.38;;;;;;;29.56;35.69;99906.31;4225772;33;20105;-91
2021/07/27 10:08:59;;;;;;;26.98;12.98;;;;;;;29.42;35.76;99901.41;4215902;34;20175;-91
2021/07/27 10:11:45;;;;;;;24.02;12.90;;;;;;;29.39;36.29;99905.50;4217141;34;20007;-90
2021/07/27 10:14:13;;;;;;;24.08;13.48;;;;;;;29.56;35.98;99909.22;4210127;34;20023;-90
2021/07/27 10:16:43;;;;;;;22.80;13.45;;;;;;;29.74;35.73;99899.25;4227070;34;20061;-91
2021/07/27 10:20:01;;;;;;;26.00;11.90;;;;;;;29.66;35.68;99907.25;4233746;33;20053;-91
2021/07/27 10:22:41;;;;;;;24.58;13.68;;;;;;;30.13;34.83;99900.47;4208568;34;20055;-91
2021/07/27 10:25:14;;;;;;;20.12;11.43;;;;;;;29.97;35.27;99907.78;4204598;34;20116;-91
2021/07/27 10:27:50;;;;;;;22.85;14.02;;;;;;;30.39;34.52;99908.53;4210110;34;20046;-92
2021/07/27 10:30:30;;;;;;;20.98;12.65;;;;;;;30.32;34.29;99907.25;4191085;34;20090;-91
2021/07/27 10:32:57;;;;;;;18.80;12.20;;;;;;;30.43;34.21;99903.84;4212928;34;20042;-91
2021/07/27 10:35:33;;;;;;;20.77;11.88;;;;;;;30.35;34.69;99902.37;4213043;34;20391;-91
2021/07/27 10:38:18;;;;;;;24.67;12.30;;;;;;;29.85;35.59;99895.13;4206201;34;20073;-91
2021/07/27 10:40:50;;;;;;;19.10;11.77;;;;;;;30.01;35.48;99902.31;4188858;34;20073;-90
2021/07/27 10:43:24;;;;;;;19.33;11.93;;;;;;;30.09;35.36;99897.19;4215563;34;20055;-91
2021/07/27 10:46:11;;;;;;;27.92;12.98;;;;;;;30.25;35.07;99899.38;4397912;28;20028;31
2021/07/27 10:50:11;;;;;;;20.12;11.73;;;;;;;30.45;34.50;99865.50;4247259;33;20078;-94
2021/07/27 10:53:09;;;;;;;17.55;10.73;;;;;;;30.67;34.57;99888.47;4239435;33;20086;-94
2021/07/27 10:55:43;;;;;;;17.98;10.15;;;;;;;30.54;33.92;99890.94;4228022;33;20050;-69
2021/07/27 10:58:17;;;;;;;14.85;10.43;;;;;;;30.27;34.14;99887.16;4230942;33;20050;-69
2021/07/27 11:00:43;;;;;;;21.40;10.80;;;;;;;30.43;34.20;99891.47;4229833;33;20143;-69
2021/07/27 11:03:10;;;;;;;20.77;11.23;;;;;;;30.45;34.04;99894.53;4233442;33;21444;-69
2021/07/27 11:05:36;;;;;;;22.45;15.57;;;;;;;30.15;34.04;99895.59;4230551;33;20081;-69
2021/07/27 11:08:02;;;;;;;18.77;11.93;;;;;;;30.43;33.53;99895.13;4225840;33;20097;-69
2021/07/27 11:10:30;;;;;;;19.67;10.88;;;;;;;30.36;33.83;99892.31;4231370;33;20073;-69
2021/07/27 11:12:58;;;;;;;19.17;12.65;;;;;;;30.52;33.46;99896.56;4231467;33;20466;-69
2021/07/27 11:15:27;;;;;;;19.15;10.55;;;;;;;30.54;33.71;99882.22;4232816;33;20046;-69
2021/07/27 11:23:16;;;;;;;19.75;10.60;;;;;;;31.40;32.70;99888.66;4003740;31;15019007;-70
2021/07/27 11:25:42;;;;;;;16.02;10.02;;;;;;;31.40;32.70;99888.66;4462327;32;20056;-70
2021/07/27 11:28:10;;;;;;;16.60;10.02;;;;;;;31.06;33.03;99877.91;4462395;32;20068;-69
2021/07/27 11:30:37;;;;;;;20.58;11.68;;;;;;;31.56;31.96;99884.16;4461774;32;20136;-70
2021/07/27 11:33:12;;;;;;;19.58;10.75;;;;;;;31.58;32.20;99882.19;4446545;32;20032;-69
2021/07/27 11:38:29;;;;;;;15.73;10.93;;;;;;;32.44;30.84;99885.34;3997843;31;15015223;-69
2021/07/27 11:41:05;;;;;;;18.17;11.10;;;;;;;32.44;30.84;99885.34;4454969;32;20095;-69
2021/07/27 11:43:33;;;;;;;14.70;8.98;;;;;;;31.97;31.07;99880.94;4451530;32;20071;-69
2021/07/27 11:48:44;;;;;;;14.32;9.40;;;;;;;32.21;30.72;99874.09;3982090;32;15025573;-70
2021/07/27 11:51:10;;;;;;;19.10;11.27;;;;;;;32.21;30.72;99874.09;4436864;32;20385;-70
2021/07/27 11:53:39;;;;;;;16.20;11.07;;;;;;;31.71;30.52;99873.03;4434442;32;20068;-69
2021/07/27 11:56:15;;;;;;;17.73;10.15;;;;;;;31.84;30.67;99863.91;4435969;32;20316;-69
2021/07/27 11:58:41;;;;;;;16.48;10.73;;;;;;;32.32;30.71;99869.81;4437441;32;20427;-69
2021/07/27 12:01:07;;;;;;;31.23;18.92;;;;;;;32.22;31.24;99866.16;4436889;32;20532;-69
2021/07/27 12:03:33;;;;;;;23.87;12.18;;;;;;;32.13;30.79;99861.84;4436399;32;20096;-69
2021/07/27 12:06:10;;;;;;;18.95;11.50;;;;;;;32.09;32.21;99866.59;4435365;32;20060;-70
2021/07/27 12:08:36;;;;;;;19.65;10.52;;;;;;;32.38;30.95;99853.63;4435624;32;20445;-70
2021/07/27 12:11:02;;;;;;;17.30;10.50;;;;;;;32.39;30.72;99860.19;4437331;32;20339;-70
2021/07/27 12:13:29;;;;;;;20.37;11.93;;;;;;;32.67;30.62;99855.75;4436934;32;20103;-69
2021/07/27 12:15:55;;;;;;;18.30;11.15;;;;;;;32.75;29.74;99847.63;4434710;32;20082;-69
2021/07/27 12:18:21;;;;;;;14.15;9.65;;;;;;;33.09;29.35;99853.88;4438223;32;20055;-70
2021/07/27 12:20:47;;;;;;;15.63;8.82;;;;;;;33.57;27.86;99854.50;4434304;32;20058;-70
2021/07/27 12:23:17;;;;;;;19.87;9.70;;;;;;;34.00;27.41;99847.38;4436675;32;20104;-70
2021/07/27 12:25:43;;;;;;;16.73;10.20;;;;;;;34.10;27.21;99853.16;4438031;32;20101;-70
2021/07/27 12:28:09;;;;;;;31.20;16.75;;;;;;;34.59;26.46;99845.56;4434066;32;20464;-70
2021/07/27 12:30:34;;;;;;;20.83;9.20;;;;;;;35.32;25.54;99849.75;4435635;32;20116;-70
2021/07/27 12:33:00;;;;;;;15.90;9.05;;;;;;;35.45;24.72;99854.25;4435774;32;20363;-70
2021/07/27 12:35:26;;;;;;;17.70;9.40;;;;;;;35.94;24.17;99847.13;4434680;32;20481;-70
2021/07/27 12:37:51;;;;;;;16.00;8.00;;;;;;;36.28;22.81;99845.59;4435827;32;20085;-70
2021/07/27 12:40:18;;;;;;;16.48;9.10;;;;;;;36.58;22.52;99854.03;4434233;32;20025;-69
2021/07/27 12:42:44;;;;;;;21.33;11.52;;;;;;;36.64;22.63;99842.66;4434316;32;20069;-70
2021/07/27 12:45:11;;;;;;;15.00;9.30;;;;;;;36.75;22.54;99841.84;4434601;32;20545;-69
2021/07/27 12:47:37;;;;;;;13.57;8.63;;;;;;;36.76;22.25;99845.56;4434859;32;20132;-70
2021/07/27 12:50:05;;;;;;;13.20;7.62;;;;;;;37.04;21.95;99838.38;4437052;32;20331;-69
2021/07/27 12:52:31;;;;;;;14.70;8.82;;;;;;;37.34;21.54;99837.97;4431806;32;20041;-69
2021/07/27 12:54:57;;;;;;;14.30;8.60;;;;;;;37.50;21.15;99835.16;4431212;32;20116;-69
2021/07/27 12:57:22;;;;;;;15.35;8.50;;;;;;;37.81;21.23;99829.56;4436518;32;20025;-69
2021/07/27 12:59:48;;;;;;;12.63;8.60;;;;;;;38.03;21.39;99824.13;4425808;32;20104;-70
2021/07/27 13:02:15;;;;;;;13.93;8.32;;;;;;;38.39;20.96;99815.03;4425979;32;20449;-70
2021/07/27 13:04:40;;;;;;;12.90;8.60;;;;;;;38.78;20.40;99821.47;4423945;32;20064;-69
2021/07/27 13:07:07;;;;;;;17.98;7.43;;;;;;;38.78;20.13;99824.41;4423973;32;20033;-69
2021/07/27 13:09:32;;;;;;;12.85;6.75;;;;;;;39.21;19.59;99822.16;4423914;32;20029;-69
2021/07/27 13:11:58;;;;;;;16.17;7.97;;;;;;;39.35;19.21;99816.94;4426129;32;20048;-70
2021/07/27 13:14:24;;;;;;;12.07;7.97;;;;;;;39.04;19.41;99810.25;4425398;32;20035;-69
2021/07/27 13:16:52;;;;;;;14.30;8.63;;;;;;;39.19;19.88;99812.47;4422434;32;20101;-70
2021/07/27 13:19:18;;;;;;;12.55;8.85;;;;;;;39.07;20.48;99803.81;4424799;32;20081;-69
2021/07/27 13:21:43;;;;;;;15.57;8.73;;;;;;;39.13;20.29;99812.94;4425347;32;20463;-69
2021/07/27 13:24:09;;;;;;;16.75;9.35;;;;;;;39.27;19.92;99813.59;4427003;32;20112;-69
2021/07/27 13:26:35;;;;;;;14.00;8.57;;;;;;;39.47;19.68;99808.72;4422419;32;20521;-71
2021/07/27 13:29:01;;;;;;;13.98;8.88;;;;;;;39.60;19.44;99813.00;4427904;32;20179;-70
2021/07/27 13:31:27;;;;;;;16.42;8.45;;;;;;;39.75;19.48;99814.41;4424018;32;20155;-70
2021/07/27 13:33:52;;;;;;;15.68;8.27;;;;;;;40.56;18.61;99813.62;4424413;32;20091;-70
2021/07/27 13:36:19;;;;;;;12.98;8.60;;;;;;;41.29;17.73;99807.09;4422917;32;20392;-69
2021/07/27 13:38:46;;;;;;;13.07;8.00;;;;;;;42.10;17.00;99810.97;4425677;32;20088;-70
2021/07/27 13:41:11;;;;;;;11.18;7.85;;;;;;;42.61;16.36;99804.66;4424232;32;20056;-70
2021/07/27 13:43:37;;;;;;;12.43;7.68;;;;;;;43.64;15.53;99812.47;4424562;32;20153;-70
2021/07/27 13:46:02;;;;;;;13.50;7.85;;;;;;;43.61;15.67;99807.19;4424513;32;20026;-70
2021/07/27 13:48:28;;;;;;;16.67;8.30;;;;;;;44.76;14.76;99812.66;4425585;32;20111;-71
2021/07/27 13:50:53;;;;;;;12.43;8.50;;;;;;;45.56;13.96;99807.16;4425234;32;20077;-71
2021/07/27 13:53:19;;;;;;;17.98;9.25;;;;;;;45.25;14.11;99811.66;4425001;32;20069;-70
2021/07/27 13:55:46;;;;;;;14.25;8.90;;;;;;;45.43;13.96;99802.41;4421231;32;20085;-70
2021/07/27 13:58:12;;;;;;;12.77;8.38;;;;;;;44.90;14.38;99793.69;4424167;32;20073;-70
2021/07/27 14:00:38;;;;;;;14.80;8.63;;;;;;;45.02;14.17;99803.66;4425082;32;20474;-70
2021/07/27 14:03:04;;;;;;;13.77;9.00;;;;;;;44.55;14.65;99795.03;4425678;32;20098;-70
2021/07/27 14:05:30;;;;;;;15.77;8.05;;;;;;;43.43;15.46;99786.59;4423979;32;20414;-70
2021/07/27 14:07:56;;;;;;;11.82;8.35;;;;;;;42.84;15.93;99777.31;4424594;32;20096;-70
2021/07/27 14:10:22;;;;;;;18.48;8.98;;;;;;;43.15;15.78;99787.97;4423930;32;20018;-70
2021/07/27 14:12:48;;;;;;;12.43;8.55;;;;;;;43.07;15.83;99783.28;4424598;32;20081;-70
2021/07/27 14:15:14;;;;;;;10.32;7.85;;;;;;;43.16;15.57;99787.28;4423967;32;20113;-70
2021/07/27 14:17:40;;;;;;;12.32;8.68;;;;;;;43.26;15.60;99781.66;4425643;32;20042;-70
2021/07/27 14:20:08;;;;;;;14.63;8.15;;;;;;;43.40;15.53;99778.38;4425559;32;20509;-70
2021/07/27 14:22:33;;;;;;;14.75;9.88;;;;;;;43.43;15.59;99780.69;4425824;32;20072;-70
2021/07/27 14:24:59;;;;;;;16.05;8.82;;;;;;;42.45;16.43;99780.44;4426976;32;20037;-70
2021/07/27 14:27:27;;;;;;;14.93;9.95;;;;;;;42.20;16.55;99764.00;4427727;32;20404;-70
2021/07/27 14:29:57;;;;;;;18.67;10.75;;;;;;;40.98;17.61;99768.19;4423031;32;20077;-70
2021/07/27 14:32:23;;;;;;;16.35;10.73;;;;;;;40.64;18.06;99761.62;4424343;32;20056;-70
2021/07/27 14:34:49;;;;;;;14.68;9.30;;;;;;;39.89;18.75;99753.16;4425408;32;20150;-70
2021/07/27 14:37:14;;;;;;;31.30;20.23;;;;;;;39.53;19.16;99750.09;4424914;32;20029;-70
2021/07/27 14:39:40;;;;;;;11.48;8.73;;;;;;;39.09;19.60;99753.88;4423940;32;20133;-70
2021/07/27 14:42:06;;;;;;;10.98;8.23;;;;;;;39.82;18.98;99746.25;4428272;32;20112;-70
2021/07/27 14:44:32;;;;;;;13.48;8.63;;;;;;;40.07;18.57;99751.03;4418763;32;20068;-70
2021/07/27 14:46:57;;;;;;;14.30;9.32;;;;;;;39.59;19.28;99749.59;4423581;32;21232;-70
2021/07/27 14:49:23;;;;;;;13.98;8.48;;;;;;;38.72;20.24;99744.72;4424350;32;20433;-70
2021/07/27 14:51:49;;;;;;;13.55;7.90;;;;;;;38.03;21.01;99754.34;4422661;32;20038;-70
2021/07/27 14:54:15;;;;;;;14.63;8.13;;;;;;;37.01;22.37;99740.72;4422804;32;20098;-70
2021/07/27 14:56:41;;;;;;;14.15;8.98;;;;;;;36.11;23.42;99732.50;4425147;32;20065;-70
2021/07/27 14:59:07;;;;;;;17.85;8.82;;;;;;;35.71;23.78;99745.41;4425496;32;20366;-70
2021/07/27 15:01:32;;;;;;;15.77;8.82;;;;;;;35.65;23.83;99730.41;4423434;32;20073;-70
2021/07/27 15:03:58;;;;;;;14.60;8.57;;;;;;;35.65;23.87;99726.75;4408165;32;20099;-70
2021/07/27 15:06:24;;;;;;;12.55;8.68;;;;;;;35.12;24.60;99737.28;4419420;32;20025;-69
2021/07/27 15:08:50;;;;;;;19.10;8.25;;;;;;;34.60;25.07;99742.66;4424056;32;20033;-69
2021/07/27 15:11:15;;;;;;;14.75;9.20;;;;;;;34.29;25.74;99736.16;4421905;32;20487;-71
2021/07/27 15:13:41;;;;;;;24.48;14.85;;;;;;;33.64;29.19;99744.81;4424855;32;20085;-70
2021/07/27 15:16:07;;;;;;;23.00;10.13;;;;;;;32.36;31.63;99766.09;4424207;32;20030;-70
2021/07/27 15:18:34;;;;;;;26.00;11.63;;;;;;;30.29;34.33;99779.94;4422576;32;20389;-69
2021/07/27 15:21:00;;;;;;;26.08;13.27;;;;;;;28.74;41.41;99791.69;4423552;32;21153;-70
2021/07/27 15:23:25;;;;;;;29.63;13.93;;;;;;;27.30;45.17;99795.53;4425512;32;20480;-69
2021/07/27 15:25:51;;;;;;;26.77;13.15;;;;;;;25.97;50.32;99790.22;4424235;32;20107;-69
2021/07/27 15:28:18;;;;;;;27.05;13.60;;;;;;;25.50;51.60;99795.50;4422565;32;20087;-69
2021/07/27 15:30:45;;;;;;;28.62;15.27;;;;;;;25.54;53.16;99776.50;4421557;32;20029;-70
2021/07/27 15:33:11;;;;;;;27.75;14.65;;;;;;;25.34;52.24;99788.81;4426772;32;20396;-70
2021/07/27 15:35:38;;;;;;;26.80;15.73;;;;;;;25.46;52.48;99795.09;4423081;32;20076;-70
2021/07/27 15:38:04;;;;;;;17.40;11.73;;;;;;;25.48;52.99;99789.50;4421019;32;20932;-71
2021/07/27 15:40:30;;;;;;;19.52;10.55;;;;;;;25.45;51.86;99793.53;4421605;32;20049;-70
2021/07/27 15:42:56;;;;;;;23.08;12.30;;;;;;;25.35;50.41;99787.50;4423607;32;20073;-71
2021/07/27 15:45:22;;;;;;;15.23;8.63;;;;;;;25.62;51.90;99777.34;4422728;32;20126;-70
2021/07/27 15:47:48;;;;;;;15.02;8.25;;;;;;;25.61;50.58;99775.03;4427257;32;20166;-70
2021/07/27 15:50:14;;;;;;;14.15;8.10;;;;;;;25.61;49.66;99772.91;4423849;32;20453;-70
2021/07/27 15:52:42;;;;;;;15.73;8.38;;;;;;;25.93;49.58;99772.53;4421992;32;20073;-70
2021/07/27 15:55:09;;;;;;;14.55;7.50;;;;;;;26.07;50.00;99765.31;4423139;32;20041;-70
2021/07/27 15:57:35;;;;;;;17.58;9.40;;;;;;;26.53;49.04;99761.25;4423344;32;20129;-70
2021/07/27 16:00:02;;;;;;;11.88;7.10;;;;;;;26.76;50.49;99767.91;4425589;32;20051;-70
2021/07/27 16:02:28;;;;;;;12.25;7.47;;;;;;;27.01;47.01;99760.25;4421584;32;20409;-70
2021/07/27 16:04:54;;;;;;;13.30;7.70;;;;;;;27.23;47.84;99763.13;4424604;32;20108;-70
2021/07/27 16:07:20;;;;;;;14.40;7.30;;;;;;;27.34;47.96;99759.13;4422664;32;20041;-70
2021/07/27 16:09:46;;;;;;;11.63;6.37;;;;;;;27.74;47.24;99760.03;4424303;32;20469;-70
2021/07/27 16:12:12;;;;;;;11.48;7.07;;;;;;;28.00;45.54;99753.03;4420326;32;20343;-70
2021/07/27 16:14:37;;;;;;;13.82;6.28;;;;;;;28.24;46.35;99749.47;4423530;32;20461;-70
2021/07/27 16:17:05;;;;;;;9.93;6.12;;;;;;;28.37;45.50;99758.69;4423051;32;20097;-70
2021/07/27 16:19:30;;;;;;;12.02;6.78;;;;;;;28.80;43.63;99746.69;4424274;32;20103;-70
2021/07/27 16:21:56;;;;;;;11.25;6.40;;;;;;;28.86;44.20;99747.22;4413763;32;20089;-70
2021/07/27 16:24:22;;;;;;;11.95;6.35;;;;;;;29.17;44.09;99750.69;4419230;32;20108;-70
2021/07/27 16:26:48;;;;;;;9.63;6.12;;;;;;;29.70;42.01;99738.62;4418369;32;20045;-70
2021/07/27 16:29:14;;;;;;;8.43;6.15;;;;;;;30.00;40.75;99749.91;4405471;32;20470;-70
2021/07/27 16:31:39;;;;;;;8.98;5.68;;;;;;;30.67;40.57;99742.44;4419650;32;20856;-70
2021/07/27 16:34:05;;;;;;;11.23;6.85;;;;;;;31.07;38.73;99747.91;4421617;32;20365;-70
2021/07/27 16:36:31;;;;;;;10.45;6.50;;;;;;;31.71;39.41;99739.22;4420797;32;20156;-70
2021/07/27 16:38:56;;;;;;;10.63;5.80;;;;;;;32.11;37.80;99736.50;4428243;32;20080;-70
2021/07/27 16:41:22;;;;;;;7.90;5.32;;;;;;;32.70;36.37;99735.06;4426582;32;20390;-70
2021/07/27 16:43:48;;;;;;;14.32;5.78;;;;;;;32.52;35.04;99731.59;4421909;32;20222;-70
2021/07/27 16:46:14;;;;;;;9.95;5.30;;;;;;;32.07;35.90;99723.78;4426757;32;20100;-70
2021/07/27 16:48:40;;;;;;;9.07;5.50;;;;;;;32.11;35.54;99727.78;4424650;32;20100;-70
2021/07/27 16:51:06;;;;;;;9.05;5.45;;;;;;;32.59;34.34;99727.75;4425503;32;20065;-70
2021/07/27 16:53:33;;;;;;;11.35;5.37;;;;;;;32.47;35.53;99733.44;4429000;32;20087;-70
2021/07/27 16:55:58;;;;;;;8.13;5.90;;;;;;;32.35;35.99;99726.72;4428949;32;20595;-70
2021/07/27 16:58:24;;;;;;;9.50;5.50;;;;;;;32.12;35.98;99722.72;4426313;32;20064;-70
2021/07/27 17:00:50;;;;;;;10.27;4.80;;;;;;;32.10;35.35;99729.16;4425922;32;20088;-70
2021/07/27 17:03:16;;;;;;;9.32;5.65;;;;;;;31.91;35.39;99722.56;4427729;32;20129;-70
2021/07/27 17:05:41;;;;;;;8.38;5.70;;;;;;;31.97;35.06;99711.41;4427179;32;20411;-70
2021/07/27 17:08:07;;;;;;;8.50;5.50;;;;;;;31.94;35.28;99716.28;4423695;32;20073;-70
2021/07/27 17:10:33;;;;;;;8.13;5.53;;;;;;;32.29;34.80;99723.31;4427984;32;20353;-70
2021/07/27 17:12:59;;;;;;;9.32;6.45;;;;;;;32.02;35.42;99707.41;4424093;32;20029;-70
2021/07/27 17:15:25;;;;;;;11.35;6.68;;;;;;;32.01;35.83;99711.69;4425125;32;20521;-70
2021/07/27 17:17:51;;;;;;;8.68;6.03;;;;;;;31.76;37.12;99714.09;4425718;32;20065;-70
2021/07/27 17:20:17;;;;;;;15.32;5.85;;;;;;;31.70;36.22;99704.91;4427969;32;20436;-70
2021/07/27 17:22:44;;;;;;;9.25;6.25;;;;;;;31.66;37.41;99704.63;4426734;32;20046;-70
2021/07/27 17:25:14;;;;;;;12.45;7.47;;;;;;;31.53;37.37;99708.72;4426408;32;20121;-70
2021/07/27 17:27:41;;;;;;;14.27;7.90;;;;;;;31.58;37.54;99710.56;4427776;32;20493;-70
2021/07/27 17:30:08;;;;;;;14.98;8.15;;;;;;;31.37;36.74;99701.66;4425130;32;20096;-70
2021/07/27 17:32:36;;;;;;;14.27;8.90;;;;;;;30.87;36.71;99694.75;4427248;32;20576;-70
2021/07/27 17:35:02;;;;;;;13.15;8.05;;;;;;;30.56;36.49;99700.19;4426060;32;20124;-70
2021/07/27 17:37:28;;;;;;;17.58;10.50;;;;;;;30.12;37.67;99695.75;4424760;32;20073;-70
2021/07/27 17:39:56;;;;;;;15.15;9.73;;;;;;;30.13;37.75;99697.31;4425131;32;20066;-70
2021/07/27 17:42:24;;;;;;;17.77;11.25;;;;;;;29.89;38.11;99701.09;4422715;32;20060;-70
2021/07/27 17:44:49;;;;;;;14.87;10.02;;;;;;;29.51;37.81;99701.47;4424231;32;20026;-70
2021/07/27 17:47:15;;;;;;;17.87;9.90;;;;;;;28.93;37.72;99702.94;4421668;32;20096;-71
2021/07/27 17:49:41;;;;;;;16.37;8.82;;;;;;;29.10;38.49;99699.38;4425540;32;20066;-70
2021/07/27 17:52:07;;;;;;;16.65;9.68;;;;;;;29.06;39.01;99698.25;4423715;32;20092;-70
2021/07/27 17:54:33;;;;;;;13.68;8.45;;;;;;;28.96;39.38;99703.91;4428233;32;20069;-70
2021/07/27 17:57:00;;;;;;;16.87;9.40;;;;;;;29.08;39.33;99699.19;4422922;32;20462;-70
2021/07/27 17:59:27;;;;;;;16.58;10.65;;;;;;;28.96;39.19;99698.88;4428357;32;20065;-70
2021/07/27 18:01:52;;;;;;;17.48;10.55;;;;;;;29.00;39.00;99701.34;4423548;32;20156;-70
2021/07/27 18:04:18;;;;;;;14.60;9.88;;;;;;;28.99;39.89;99702.69;4423522;32;20057;-70
2021/07/27 18:06:43;;;;;;;20.23;11.10;;;;;;;29.16;38.80;99702.78;4422120;32;20115;-70
2021/07/27 18:09:09;;;;;;;19.02;10.65;;;;;;;28.96;38.67;99701.75;4425160;32;20144;-70
2021/07/27 18:11:35;;;;;;;21.87;10.88;;;;;;;29.19;38.19;99701.59;4426380;32;20096;-70
2021/07/27 18:14:00;;;;;;;21.55;10.55;;;;;;;29.36;37.23;99697.97;4424072;32;20237;-71
2021/07/27 18:16:26;;;;;;;15.02;9.98;;;;;;;29.39;35.83;99697.53;4422311;32;20092;-71
2021/07/27 18:18:52;;;;;;;16.67;9.75;;;;;;;29.53;36.44;99692.19;4421947;32;20064;-70
2021/07/27 18:21:18;;;;;;;17.20;10.02;;;;;;;29.50;37.36;99697.06;4422130;32;20124;-70
2021/07/27 18:23:43;;;;;;;17.23;9.85;;;;;;;29.54;37.78;99699.53;4422971;32;20104;-71
2021/07/27 18:26:09;;;;;;;12.52;8.60;;;;;;;29.46;38.52;99698.84;4416078;32;20387;-71
2021/07/27 18:28:35;;;;;;;18.20;9.80;;;;;;;29.39;38.22;99694.63;4425584;32;20125;-71
2021/07/27 18:31:00;;;;;;;16.87;9.05;;;;;;;29.39;37.65;99691.00;4422212;32;20042;-71
2021/07/27 18:33:26;;;;;;;19.85;9.95;;;;;;;29.40;37.41;99689.63;4422965;32;20077;-71
2021/07/27 18:35:52;;;;;;;21.83;10.10;;;;;;;29.38;37.48;99683.63;4421658;32;20022;-71
2021/07/27 18:38:18;;;;;;;16.37;10.18;;;;;;;29.15;38.76;99689.69;4419032;32;20077;-71
2021/07/27 18:40:43;;;;;;;16.52;9.98;;;;;;;29.39;37.64;99685.19;4421162;32;20063;-71
2021/07/27 18:43:09;;;;;;;15.52;10.50;;;;;;;29.48;38.19;99685.28;4423557;32;20075;-71
2021/07/27 18:45:35;;;;;;;19.05;10.57;;;;;;;29.35;38.29;99687.72;4425305;32;20090;-71
2021/07/27 18:48:01;;;;;;;20.05;10.38;;;;;;;29.25;38.61;99690.53;4423239;32;20064;-71
2021/07/27 18:50:27;;;;;;;18.10;11.00;;;;;;;29.49;39.19;99695.53;4424146;32;20461;-71
2021/07/27 18:52:59;;;;;;;18.30;10.50;;;;;;;29.48;40.20;99690.31;4424021;32;20088;-71
2021/07/27 18:55:25;;;;;;;16.52;10.35;;;;;;;29.41;40.15;99691.91;4420700;32;20720;-71
2021/07/27 18:57:51;;;;;;;19.87;11.45;;;;;;;29.04;40.85;99695.94;4421840;32;20025;-71
2021/07/27 19:00:17;;;;;;;18.23;9.93;;;;;;;28.65;42.73;99688.09;4424802;32;20073;-70
2021/07/27 19:02:42;;;;;;;15.25;9.95;;;;;;;28.53;41.92;99684.91;4422401;32;20108;-70
2021/07/27 19:05:09;;;;;;;14.60;9.18;;;;;;;28.05;42.52;99689.22;4427143;32;20149;-70
2021/07/27 19:07:35;;;;;;;23.62;10.02;;;;;;;28.07;43.03;99677.81;4424224;32;20516;-70
2021/07/27 19:10:01;;;;;;;15.90;8.98;;;;;;;28.04;43.15;99684.75;4422414;32;20033;-70
2021/07/27 19:12:27;;;;;;;20.92;9.95;;;;;;;28.15;42.20;99675.66;4422192;32;20068;-70
2021/07/27 19:14:52;;;;;;;19.77;9.85;;;;;;;28.24;42.77;99674.25;4422946;32;20067;-70
2021/07/27 19:17:18;;;;;;;15.70;8.90;;;;;;;28.18;43.00;99682.38;4424663;32;20206;-70
2021/07/27 19:19:44;;;;;;;15.85;9.00;;;;;;;28.07;42.51;99683.59;4423182;32;20071;-70
2021/07/27 19:22:11;;;;;;;12.98;7.12;;;;;;;28.09;42.92;99683.00;4426158;32;20038;-70
2021/07/27 19:24:39;;;;;;;13.05;6.70;;;;;;;28.01;42.35;99682.28;4424020;32;20075;-70
2021/07/27 19:27:06;;;;;;;16.25;8.57;;;;;;;28.07;41.59;99685.72;4430977;32;20426;-70
2021/07/27 19:29:32;;;;;;;17.08;8.70;;;;;;;28.00;41.46;99689.41;4424677;32;20411;-70
2021/07/27 19:31:58;;;;;;;14.20;7.45;;;;;;;27.97;41.48;99679.00;4422528;32;20033;-70
2021/07/27 19:34:23;;;;;;;18.35;8.30;;;;;;;27.95;42.31;99679.59;4424617;32;20077;-70
2021/07/27 19:36:49;;;;;;;15.25;8.40;;;;;;;27.87;43.01;99683.88;4423546;32;20030;-70
2021/07/27 19:39:15;;;;;;;14.77;9.07;;;;;;;27.86;42.27;99676.56;4421346;32;20117;-70
2021/07/27 19:41:45;;;;;;;14.23;7.93;;;;;;;27.80;43.99;99681.75;4423458;32;20069;-70
2021/07/27 19:44:14;;;;;;;13.02;7.37;;;;;;;27.65;44.50;99679.69;4423280;32;20097;-70
2021/07/27 19:51:51;;;;;;;13.85;7.75;;;;;;;27.56;44.11;99667.94;3981080;32;15023842;-69
2021/07/27 19:54:18;;;;;;;15.90;7.80;;;;;;;27.56;44.11;99667.94;4432219;32;20370;-70
2021/07/27 19:56:44;;;;;;;14.82;7.72;;;;;;;27.16;44.69;99671.47;4432117;32;20103;-70
2021/07/27 19:59:09;;;;;;;18.50;8.18;;;;;;;27.10;45.17;99673.81;4432458;32;20133;-71
2021/07/27 20:01:35;;;;;;;13.48;8.07;;;;;;;26.94;45.12;99678.03;4429072;32;20298;-71
2021/07/27 20:04:02;;;;;;;15.77;8.38;;;;;;;27.01;44.87;99673.59;4433052;32;20449;-71
2021/07/27 20:06:28;;;;;;;13.43;8.10;;;;;;;27.04;45.04;99681.13;4431107;32;20050;-70
2021/07/27 20:08:54;;;;;;;16.95;9.10;;;;;;;27.10;44.99;99684.59;4433182;32;20038;-70
2021/07/27 20:11:20;;;;;;;12.85;8.32;;;;;;;26.91;45.97;99682.06;4429353;32;20041;-70
2021/07/27 20:13:46;;;;;;;15.77;8.93;;;;;;;26.84;46.25;99677.06;4434846;32;20095;-70
2021/07/27 20:16:12;;;;;;;15.30;8.82;;;;;;;26.83;46.41;99686.31;4432838;32;20105;-70
2021/07/27 20:18:37;;;;;;;21.23;11.68;;;;;;;26.87;46.33;99686.69;4432248;32;20033;-70
2021/07/27 20:21:04;;;;;;;16.35;8.40;;;;;;;26.80;47.26;99699.00;4431975;32;20030;-70
2021/07/27 20:23:30;;;;;;;20.30;10.05;;;;;;;26.67;46.62;99687.66;4431555;32;20037;-70
2021/07/27 20:25:55;;;;;;;20.10;12.68;;;;;;;26.68;46.88;99694.94;4433965;32;20714;-70
2021/07/27 20:28:21;;;;;;;18.65;11.57;;;;;;;26.72;46.31;99701.13;4433180;32;20125;-70
2021/07/27 20:30:47;;;;;;;17.58;9.52;;;;;;;26.82;46.10;99702.84;4432541;32;20413;-70
2021/07/27 20:33:17;;;;;;;13.93;8.57;;;;;;;26.92;46.13;99698.06;4433587;32;20072;-70
2021/07/27 20:35:42;;;;;;;17.00;9.10;;;;;;;26.94;46.03;99703.25;4431373;32;20572;-70
2021/07/27 20:38:08;;;;;;;15.20;8.75;;;;;;;26.88;45.87;99712.09;4430714;32;20038;-70
2021/07/27 20:40:34;;;;;;;17.48;9.52;;;;;;;26.91;45.85;99710.94;4429841;32;20560;-70
2021/07/27 20:43:01;;;;;;;19.12;9.80;;;;;;;26.78;46.32;99711.13;4432210;32;20072;-70
2021/07/27 20:45:27;;;;;;;29.27;11.48;;;;;;;26.90;46.36;99709.41;4431928;32;20086;-70
2021/07/27 20:47:53;;;;;;;18.52;9.82;;;;;;;26.82;46.57;99708.62;4428068;32;20065;-70
2021/07/27 20:50:19;;;;;;;18.50;9.90;;;;;;;26.79;46.62;99717.69;4430500;32;20138;-70
2021/07/27 20:52:45;;;;;;;15.68;9.13;;;;;;;26.83;46.83;99710.19;4429973;32;20089;-70
2021/07/27 20:55:12;;;;;;;17.77;9.43;;;;;;;26.78;46.84;99705.34;4433077;32;20033;-70
2021/07/27 20:57:38;;;;;;;21.55;9.43;;;;;;;26.61;47.30;99708.00;4434264;32;20090;-70
2021/07/27 21:00:05;;;;;;;19.27;9.20;;;;;;;26.53;47.43;99712.22;4434519;32;20057;-70
2021/07/27 21:02:30;;;;;;;14.45;8.82;;;;;;;26.68;47.44;99707.28;4422778;32;20065;-70
2021/07/27 21:04:56;;;;;;;19.87;10.10;;;;;;;26.39;47.82;99708.75;4421251;32;20084;-70